createdAt,value
2023-01-10T00:00:42.505Z,98.18
2023-01-10T00:03:10.384Z,98.82
2023-01-10T00:05:38.033Z,99.02
2023-01-10T00:08:05.697Z,98.54
2023-01-10T00:10:35.741Z,98.90
2023-01-10T00:13:20.523Z,99.16
2023-01-10T00:15:47.226Z,99.60
2023-01-10T00:18:13.730Z,99.23
2023-01-10T00:20:40.140Z,98.81
2023-01-10T00:23:06.841Z,100.00
2023-01-10T00:25:34.307Z,99.34
2023-01-10T00:28:19.256Z,99.09
2023-01-10T00:30:59.941Z,99.79
2023-01-10T00:33:26.891Z,100.00
2023-01-10T00:35:55.900Z,100.00
2023-01-10T00:38:22.285Z,100.00
2023-01-10T00:40:48.788Z,100.00
2023-01-10T00:43:33.781Z,100.00
2023-01-10T00:46:01.128Z,100.00
2023-01-10T00:48:27.551Z,100.00
2023-01-10T00:50:54.099Z,100.00
2023-01-10T00:53:20.658Z,100.00
2023-01-10T00:55:47.099Z,100.00
2023-01-10T00:58:14.943Z,100.00
2023-01-10T01:00:42.454Z,100.00
2023-01-10T01:03:09.020Z,100.00
2023-01-10T01:05:44.095Z,100.00
2023-01-10T01:08:11.987Z,100.00
2023-01-10T01:10:39.397Z,100.00
2023-01-10T01:13:12.794Z,100.00
2023-01-10T01:15:39.251Z,100.00
2023-01-10T01:18:06.422Z,100.00
2023-01-10T01:20:33.058Z,100.00
2023-01-10T01:23:00.784Z,100.00
2023-01-10T01:25:27.266Z,100.00
2023-01-10T01:27:56.305Z,100.00
2023-01-10T01:30:22.916Z,100.00
2023-01-10T01:32:49.339Z,100.00
2023-01-10T01:35:16.608Z,100.00
2023-01-10T01:37:43.902Z,100.00
2023-01-10T01:40:18.752Z,100.00
2023-01-10T01:42:45.939Z,100.00
2023-01-10T01:45:15.296Z,100.00
2023-01-10T01:47:44.834Z,100.00
2023-01-10T01:50:19.108Z,100.00
2023-01-10T01:52:48.771Z,100.00
2023-01-10T01:55:15.607Z,100.00
2023-01-10T01:57:42.009Z,100.00
2023-01-10T02:00:10.547Z,100.00
2023-01-10T02:03:01.242Z,100.00
2023-01-10T02:05:29.712Z,100.00
2023-01-10T02:07:59.622Z,100.00
2023-01-10T02:10:52.287Z,100.00
2023-01-10T02:13:25.428Z,100.00
2023-01-10T02:15:54.873Z,100.00
2023-01-10T02:18:23.449Z,100.00
2023-01-10T02:21:19.805Z,100.00
2023-01-10T02:24:21.654Z,100.00
2023-01-10T02:27:17.296Z,100.00
2023-01-10T02:30:09.734Z,100.00
2023-01-10T02:33:00.525Z,100.00
2023-01-10T02:36:03.740Z,100.00
2023-01-10T02:38:49.554Z,100.00
2023-01-10T02:41:59.453Z,100.00
2023-01-10T02:44:56.492Z,100.00
2023-01-10T02:47:22.884Z,100.00
2023-01-10T02:49:51.881Z,100.00
2023-01-10T02:52:22.972Z,100.00
2023-01-10T02:54:58.641Z,100.00
2023-01-10T02:57:49.890Z,100.00
2023-01-10T03:00:28.448Z,100.00
2023-01-10T03:03:06.326Z,100.00
2023-01-10T03:05:55.891Z,100.00
2023-01-10T03:08:35.353Z,100.00
2023-01-10T03:11:04.452Z,100.00
2023-01-10T03:13:55.890Z,100.00
2023-01-10T03:16:27.874Z,100.00
2023-01-10T03:37:09.769Z,100.00
2023-01-10T03:39:53.053Z,100.00
2023-01-10T03:42:58.288Z,100.00
2023-01-10T03:45:30.386Z,100.00
2023-01-10T03:48:01.264Z,100.00
2023-01-10T03:50:29.135Z,100.00
2023-01-10T03:52:55.780Z,100.00
2023-01-10T03:55:25.973Z,100.00
2023-01-10T03:57:52.382Z,100.00
2023-01-10T04:00:19.455Z,100.00
2023-01-10T04:02:46.701Z,100.00
2023-01-10T04:05:13.128Z,100.00
2023-01-10T04:07:40.172Z,100.00
2023-01-10T04:10:07.312Z,100.00
2023-01-10T04:12:33.756Z,100.00
2023-01-10T04:15:01.418Z,100.00
2023-01-10T04:17:27.813Z,100.00
2023-01-10T04:19:55.000Z,100.00
2023-01-10T04:22:21.387Z,100.00
2023-01-10T04:24:48.580Z,100.00
2023-01-10T04:27:15.007Z,100.00
2023-01-10T04:29:41.804Z,100.00
2023-01-10T04:32:08.211Z,100.00
2023-01-10T04:34:34.623Z,100.00
2023-01-10T04:37:01.021Z,100.00
2023-01-10T04:39:27.437Z,100.00
2023-01-10T04:41:54.635Z,100.00
2023-01-10T04:44:21.044Z,100.00
2023-01-10T04:46:47.442Z,100.00
2023-01-10T04:49:13.839Z,100.00
2023-01-10T04:51:40.622Z,100.00
2023-01-10T04:54:07.072Z,100.00
2023-01-10T04:56:33.793Z,100.00
2023-01-10T04:59:00.167Z,100.00
2023-01-10T05:01:26.836Z,100.00
2023-01-10T05:03:55.454Z,100.00
2023-01-10T05:06:23.757Z,100.00
2023-01-10T05:08:50.336Z,100.00
2023-01-10T05:11:16.728Z,100.00
2023-01-10T05:13:43.129Z,100.00
2023-01-10T05:16:09.608Z,100.00
2023-01-10T05:18:36.070Z,100.00
2023-01-10T05:21:04.998Z,100.00
2023-01-10T05:23:32.096Z,100.00
2023-01-10T05:26:04.953Z,100.00
2023-01-10T05:28:31.335Z,100.00
2023-01-10T05:30:57.731Z,100.00
2023-01-10T05:33:24.112Z,100.00
2023-01-10T05:35:50.506Z,100.00
2023-01-10T05:38:17.273Z,100.00
2023-01-10T05:40:43.691Z,100.00
2023-01-10T05:43:12.002Z,100.00
2023-01-10T05:45:38.537Z,100.00
2023-01-10T05:48:04.968Z,100.00
2023-01-10T05:50:33.975Z,100.00
2023-01-10T05:53:04.463Z,100.00
2023-01-10T05:55:30.918Z,100.00
2023-01-10T05:57:57.340Z,100.00
2023-01-10T06:00:25.083Z,100.00
2023-01-10T06:03:03.888Z,100.00
2023-01-10T06:05:30.673Z,100.00
2023-01-10T06:07:57.060Z,100.00
2023-01-10T06:10:23.490Z,100.00
2023-01-10T06:12:52.878Z,100.00
2023-01-10T06:15:19.279Z,100.00
2023-01-10T06:17:45.807Z,100.00
2023-01-10T06:20:13.365Z,100.00
2023-01-10T06:22:45.986Z,100.00
2023-01-10T06:25:16.820Z,100.00
2023-01-10T06:27:44.028Z,100.00
2023-01-10T06:30:13.363Z,100.00
2023-01-10T06:32:45.597Z,100.00
2023-01-10T06:35:12.299Z,100.00
2023-01-10T06:37:38.839Z,100.00
2023-01-10T06:40:06.050Z,100.00
2023-01-10T06:42:32.540Z,100.00
2023-01-10T06:44:58.939Z,100.00
2023-01-10T06:47:25.343Z,100.00
2023-01-10T06:49:51.795Z,100.00
2023-01-10T06:52:18.202Z,100.00
2023-01-10T06:54:44.747Z,100.00
2023-01-10T06:57:11.164Z,100.00
2023-01-10T06:59:37.875Z,100.00
2023-01-10T07:02:04.351Z,100.00
2023-01-10T07:04:30.853Z,100.00
2023-01-10T07:06:57.252Z,100.00
2023-01-10T07:09:23.659Z,100.00
2023-01-10T07:11:50.060Z,100.00
2023-01-10T07:14:16.477Z,100.00
2023-01-10T07:16:42.878Z,100.00
2023-01-10T07:19:09.263Z,100.00
2023-01-10T07:21:35.655Z,100.00
2023-01-10T07:24:02.926Z,100.00
2023-01-10T07:26:29.811Z,100.00
2023-01-10T07:28:56.642Z,100.00
2023-01-10T07:31:23.897Z,100.00
2023-01-10T07:33:53.475Z,100.00
2023-01-10T07:36:20.847Z,100.00
2023-01-10T07:38:47.240Z,100.00
2023-01-10T07:41:13.677Z,100.00
2023-01-10T07:43:40.164Z,100.00
2023-01-10T07:46:12.228Z,100.00
2023-01-10T07:48:39.183Z,100.00
2023-01-10T07:51:06.062Z,100.00
2023-01-10T07:53:33.160Z,100.00
2023-01-10T07:56:02.268Z,100.00
2023-01-10T07:58:29.203Z,100.00
2023-01-10T08:01:04.005Z,100.00
2023-01-10T08:03:31.111Z,100.00
2023-01-10T08:06:02.186Z,100.00
2023-01-10T08:08:28.961Z,100.00
2023-01-10T08:10:55.583Z,100.00
2023-01-10T08:13:25.144Z,100.00
2023-01-10T08:15:52.424Z,100.00
2023-01-10T08:18:20.805Z,100.00
2023-01-10T08:20:49.815Z,100.00
2023-01-10T08:23:17.079Z,100.00
2023-01-10T08:25:44.078Z,100.00
2023-01-10T08:28:10.574Z,100.00
2023-01-10T08:30:37.699Z,100.00
2023-01-10T08:33:06.363Z,100.00
2023-01-10T08:35:43.451Z,100.00
2023-01-10T08:38:11.548Z,100.00
2023-01-10T08:40:38.426Z,100.00
2023-01-10T08:43:07.582Z,100.00
2023-01-10T08:45:34.519Z,100.00
2023-01-10T08:48:01.725Z,100.00
2023-01-10T08:50:28.283Z,100.00
2023-01-10T08:52:56.965Z,100.00
2023-01-10T08:55:23.385Z,100.00
2023-01-10T08:57:49.778Z,100.00
2023-01-10T09:00:16.576Z,100.00
2023-01-10T09:02:43.013Z,100.00
2023-01-10T09:05:18.586Z,100.00
2023-01-10T09:07:53.064Z,100.00
2023-01-10T09:10:22.188Z,100.00
2023-01-10T09:12:58.581Z,100.00
2023-01-10T09:15:34.243Z,100.00
2023-01-10T09:18:06.456Z,100.00
2023-01-10T09:20:35.665Z,100.00
2023-01-10T09:23:11.825Z,100.00
2023-01-10T09:25:38.797Z,100.00
2023-01-10T09:28:06.374Z,100.00
2023-01-10T09:30:41.791Z,100.00
2023-01-10T09:33:08.755Z,100.00
2023-01-10T09:35:39.860Z,100.00
2023-01-10T09:38:16.119Z,100.00
2023-01-10T09:41:00.853Z,100.00
2023-01-10T09:43:51.786Z,100.00
2023-01-10T09:46:39.590Z,100.00
2023-01-10T09:49:33.464Z,100.00
2023-01-10T09:52:00.786Z,100.00
2023-01-10T09:54:31.567Z,100.00
2023-01-10T09:57:03.295Z,100.00
2023-01-10T09:59:38.453Z,100.00
2023-01-10T10:02:22.034Z,100.00
2023-01-10T10:05:07.338Z,100.00
2023-01-10T10:07:33.923Z,100.00
2023-01-10T10:10:00.378Z,100.00
2023-01-10T10:12:48.102Z,100.00
2023-01-10T10:15:20.525Z,100.00
2023-01-10T10:18:07.886Z,100.00
2023-01-10T10:21:11.256Z,100.00
2023-01-10T10:24:03.118Z,100.00
2023-01-10T10:26:36.062Z,100.00
2023-01-10T10:29:35.215Z,100.00
2023-01-10T10:32:21.782Z,100.00
2023-01-10T10:34:53.686Z,100.00
2023-01-10T10:37:26.751Z,100.00
2023-01-10T10:39:59.276Z,100.00
2023-01-10T10:42:31.682Z,100.00
2023-01-10T10:45:07.668Z,100.00
2023-01-10T10:47:35.789Z,100.00
2023-01-10T10:50:11.372Z,100.00
2023-01-10T10:52:40.450Z,100.00
2023-01-10T10:55:13.148Z,100.00
2023-01-10T10:57:51.724Z,100.00
2023-01-10T11:00:22.991Z,100.00
2023-01-10T11:03:03.861Z,100.00
2023-01-10T11:05:38.033Z,100.00
2023-01-10T11:08:13.748Z,100.00
2023-01-10T11:10:42.441Z,100.00
2023-01-10T11:13:27.511Z,100.00
2023-01-10T11:15:56.115Z,100.00
2023-01-10T11:18:30.552Z,100.00
2023-01-10T11:21:13.922Z,100.00
2023-01-10T11:23:40.293Z,100.00
2023-01-10T11:26:24.511Z,100.00
2023-01-10T11:29:06.750Z,100.00
2023-01-10T11:31:34.752Z,100.00
2023-01-10T11:34:05.836Z,100.00
2023-01-10T11:36:52.025Z,99.83
2023-01-10T11:39:18.516Z,100.00
2023-01-10T11:41:45.053Z,100.00
2023-01-10T11:44:30.166Z,99.95
2023-01-10T11:47:04.006Z,99.83
2023-01-10T11:49:43.053Z,99.43
2023-01-10T11:52:29.878Z,98.10
2023-01-10T11:55:00.287Z,96.55
2023-01-10T11:57:30.528Z,96.57
2023-01-10T12:00:03.547Z,96.12
2023-01-10T12:02:43.889Z,96.13
2023-01-10T12:05:17.939Z,95.79
2023-01-10T12:07:56.108Z,95.95
2023-01-10T12:10:24.695Z,94.81
2023-01-10T12:12:59.983Z,95.13
2023-01-10T12:15:31.460Z,93.61
2023-01-10T12:18:02.294Z,92.10
2023-01-10T12:20:31.647Z,92.67
2023-01-10T12:23:01.935Z,91.68
2023-01-10T12:25:35.270Z,90.42
2023-01-10T12:28:01.792Z,90.71
2023-01-10T12:30:44.514Z,90.41
2023-01-10T12:33:18.897Z,91.41
2023-01-10T12:36:15.876Z,91.36
2023-01-10T12:39:06.319Z,91.03
2023-01-10T12:42:00.649Z,90.69
2023-01-10T12:44:34.507Z,92.21
2023-01-10T12:47:25.205Z,91.07
2023-01-10T12:49:56.733Z,92.10
2023-01-10T12:52:52.364Z,92.49
2023-01-10T12:55:20.796Z,93.08
2023-01-10T12:57:52.027Z,92.64
2023-01-10T13:00:24.598Z,92.14
2023-01-10T13:02:54.421Z,92.80
2023-01-10T13:05:23.729Z,92.95
2023-01-10T13:07:53.440Z,93.21
2023-01-10T13:10:25.155Z,92.63
2023-01-10T13:13:30.924Z,92.71
2023-01-10T13:16:02.875Z,92.88
2023-01-10T13:18:31.391Z,93.63
2023-01-10T13:21:08.884Z,92.52
2023-01-10T13:23:48.263Z,92.05
2023-01-10T13:26:14.697Z,92.60
2023-01-10T13:28:52.519Z,92.13
2023-01-10T13:31:28.892Z,92.68
2023-01-10T13:34:00.778Z,92.71
2023-01-10T13:36:31.722Z,92.49
2023-01-10T13:39:02.084Z,92.64
2023-01-10T13:42:18.504Z,91.95
2023-01-10T13:45:00.161Z,92.07
2023-01-10T13:47:43.347Z,91.62
2023-01-10T13:50:34.121Z,91.27
2023-01-10T13:53:08.055Z,91.09
2023-01-10T13:55:42.420Z,91.72
2023-01-10T13:58:58.672Z,91.54
2023-01-10T14:01:56.316Z,91.31
2023-01-10T14:04:31.787Z,91.71
2023-01-10T14:07:04.087Z,91.76
2023-01-10T14:09:36.819Z,91.00
2023-01-10T14:12:18.152Z,90.92
2023-01-10T14:14:58.579Z,91.05
2023-01-10T14:17:29.184Z,90.94
2023-01-10T14:20:03.873Z,91.54
2023-01-10T14:22:41.715Z,91.46
2023-01-10T14:25:19.112Z,90.80
2023-01-10T14:27:50.608Z,90.90
2023-01-10T14:30:21.749Z,90.59
2023-01-10T14:32:51.067Z,90.70
2023-01-10T14:35:22.474Z,91.40
2023-01-10T14:37:56.560Z,90.88
2023-01-10T14:40:28.935Z,90.79
2023-01-10T14:43:00.072Z,90.55
2023-01-10T14:45:36.281Z,91.30
2023-01-10T14:48:32.098Z,91.26
2023-01-10T14:51:10.037Z,90.91
2023-01-10T14:53:36.463Z,91.25
2023-01-10T14:56:02.932Z,91.23
2023-01-10T14:58:29.418Z,91.24
2023-01-10T15:00:56.537Z,91.58
2023-01-10T15:03:25.104Z,91.28
2023-01-10T15:05:54.903Z,92.04
2023-01-10T15:08:30.284Z,92.23
2023-01-10T15:11:09.363Z,91.85
2023-01-10T15:13:41.091Z,91.90
2023-01-10T15:16:07.890Z,92.10
2023-01-10T15:18:40.004Z,91.20
2023-01-10T15:21:07.074Z,91.83
2023-01-10T15:23:39.181Z,91.89
2023-01-10T15:26:14.926Z,91.76
2023-01-10T15:28:42.606Z,92.16
2023-01-10T15:31:11.206Z,91.99
2023-01-10T15:33:38.803Z,92.44
2023-01-10T15:36:08.080Z,92.57
2023-01-10T15:38:38.190Z,91.55
2023-01-10T15:41:06.773Z,91.33
2023-01-10T15:43:34.958Z,92.15
2023-01-10T15:46:03.997Z,91.66
2023-01-10T15:48:41.586Z,92.12
2023-01-10T15:51:29.382Z,91.32
2023-01-10T15:54:21.600Z,91.35
2023-01-10T15:56:50.801Z,91.06
2023-01-10T15:59:30.165Z,91.01
2023-01-10T16:02:18.026Z,90.33
2023-01-10T16:04:49.534Z,91.50
2023-01-10T16:07:26.820Z,91.67
2023-01-10T16:10:07.693Z,91.56
2023-01-10T16:12:55.552Z,91.97
2023-01-10T16:15:30.615Z,92.33
2023-01-10T16:17:57.608Z,93.00
2023-01-10T16:20:34.649Z,93.77
2023-01-10T16:23:02.226Z,93.22
2023-01-10T16:25:33.670Z,93.02
2023-01-10T16:28:00.437Z,93.35
2023-01-10T16:30:28.616Z,92.44
2023-01-10T16:32:57.281Z,92.79
2023-01-10T16:35:24.218Z,92.24
2023-01-10T16:37:56.148Z,93.49
2023-01-10T16:40:36.421Z,92.70
2023-01-10T16:43:18.093Z,92.48
2023-01-10T16:45:49.746Z,93.23
2023-01-10T16:48:17.327Z,92.45
2023-01-10T16:50:44.214Z,92.54
2023-01-10T16:53:12.741Z,93.93
2023-01-10T16:55:45.001Z,92.88
2023-01-10T16:58:12.992Z,93.85
2023-01-10T17:00:41.078Z,93.92
2023-01-10T17:03:11.930Z,93.16
2023-01-10T17:05:38.872Z,92.96
2023-01-10T17:08:05.921Z,93.13
2023-01-10T17:10:34.671Z,92.78
2023-01-10T17:13:04.434Z,93.27
2023-01-10T17:15:30.863Z,93.88
2023-01-10T17:17:57.286Z,94.10
2023-01-10T17:20:23.844Z,93.45
2023-01-10T17:22:50.229Z,93.79
2023-01-10T17:25:20.728Z,94.11
2023-01-10T17:27:47.177Z,94.08
2023-01-10T17:30:14.296Z,94.01
2023-01-10T17:32:40.826Z,94.38
2023-01-10T17:35:08.179Z,94.20
2023-01-10T17:37:35.411Z,94.55
2023-01-10T17:40:02.455Z,94.19
2023-01-10T17:42:29.041Z,95.12
2023-01-10T17:44:55.481Z,94.92
2023-01-10T17:47:21.924Z,94.26
2023-01-10T17:49:48.369Z,95.28
2023-01-10T17:52:14.789Z,95.42
2023-01-10T17:54:41.441Z,95.21
2023-01-10T17:57:07.867Z,94.83
2023-01-10T17:59:34.328Z,94.59
2023-01-10T18:02:01.193Z,94.86
2023-01-10T18:04:27.752Z,94.37
2023-01-10T18:06:54.148Z,94.77
2023-01-10T18:09:20.568Z,94.39
2023-01-10T18:11:46.985Z,94.54
2023-01-10T18:14:32.135Z,95.08
2023-01-10T18:16:58.608Z,94.69
2023-01-10T18:19:25.059Z,94.99
2023-01-10T18:21:51.473Z,95.05
2023-01-10T18:24:17.877Z,94.86
2023-01-10T18:26:44.283Z,94.54
2023-01-10T18:29:10.845Z,94.14
2023-01-10T18:31:37.260Z,94.01
2023-01-10T18:34:03.639Z,93.80
2023-01-10T18:36:30.133Z,94.22
2023-01-10T18:38:57.580Z,94.92
2023-01-10T18:41:24.003Z,95.08
2023-01-10T18:43:50.422Z,94.28
2023-01-10T18:46:19.630Z,94.50
2023-01-10T18:48:47.193Z,94.35
2023-01-10T18:51:14.577Z,94.29
2023-01-10T18:53:42.218Z,94.50
2023-01-10T18:56:09.573Z,94.85
2023-01-10T18:58:40.981Z,93.77
2023-01-10T19:01:10.254Z,93.64
2023-01-10T19:03:37.143Z,93.96
2023-01-10T19:06:05.563Z,93.84
2023-01-10T19:08:32.208Z,94.06
2023-01-10T19:11:15.703Z,94.75
2023-01-10T19:13:47.060Z,94.63
2023-01-10T19:16:21.346Z,94.52
2023-01-10T19:19:02.890Z,94.65
2023-01-10T19:21:30.802Z,94.79
2023-01-10T19:24:01.201Z,93.99
2023-01-10T19:26:27.771Z,94.54
2023-01-10T19:28:54.274Z,95.64
2023-01-10T19:31:23.853Z,95.43
2023-01-10T19:33:50.773Z,95.60
2023-01-10T19:36:19.069Z,95.34
2023-01-10T19:38:45.557Z,94.64
2023-01-10T19:41:14.012Z,94.47
2023-01-10T19:43:40.600Z,94.66
2023-01-10T19:46:07.844Z,95.36
2023-01-10T19:48:37.964Z,95.01
2023-01-10T19:51:12.735Z,96.17
2023-01-10T19:53:42.277Z,95.82
2023-01-10T19:56:10.117Z,95.26
2023-01-10T19:58:37.813Z,95.02
2023-01-10T20:01:25.074Z,94.18
2023-01-10T20:03:52.541Z,95.11
2023-01-10T20:06:21.691Z,95.42
2023-01-10T20:08:48.909Z,94.71
2023-01-10T20:11:16.479Z,95.18
2023-01-10T20:13:44.951Z,93.99
2023-01-10T20:16:17.248Z,94.55
2023-01-10T20:18:43.990Z,94.20
2023-01-10T20:21:12.708Z,93.51
2023-01-10T20:23:40.489Z,93.96
2023-01-10T20:26:11.354Z,93.04
2023-01-10T20:28:38.700Z,93.49
2023-01-10T20:31:07.561Z,93.33
2023-01-10T20:33:34.721Z,94.41
2023-01-10T20:36:04.263Z,93.98
2023-01-10T20:38:31.992Z,94.13
2023-01-10T20:40:59.989Z,93.96
2023-01-10T20:43:27.053Z,94.58
2023-01-10T20:45:53.902Z,93.26
2023-01-10T20:48:20.807Z,93.21
2023-01-10T20:50:47.586Z,93.14
2023-01-10T20:53:15.494Z,93.39
2023-01-10T20:55:41.953Z,93.21
2023-01-10T20:58:08.370Z,92.73
2023-01-10T21:00:35.169Z,93.49
2023-01-10T21:03:01.779Z,93.02
2023-01-10T21:05:28.255Z,93.62
2023-01-10T21:07:54.673Z,92.94
2023-01-10T21:10:21.299Z,93.65
2023-01-10T21:12:47.719Z,93.49
2023-01-10T21:15:14.230Z,92.95
2023-01-10T21:17:41.929Z,93.31
2023-01-10T21:20:09.941Z,93.86
2023-01-10T21:22:36.724Z,93.64
2023-01-10T21:25:03.497Z,93.70
2023-01-10T21:27:31.261Z,93.97
2023-01-10T21:29:58.382Z,94.74
2023-01-10T21:32:25.083Z,94.41
2023-01-10T21:34:51.516Z,94.70
2023-01-10T21:37:18.064Z,94.98
2023-01-10T21:39:44.479Z,95.37
2023-01-10T21:42:29.916Z,95.24
2023-01-10T21:44:56.341Z,95.25
2023-01-10T21:47:23.509Z,96.75
2023-01-10T21:49:49.894Z,96.26
2023-01-10T21:52:16.299Z,95.02
2023-01-10T21:54:42.788Z,95.44
2023-01-10T21:57:09.191Z,95.62
2023-01-10T21:59:37.742Z,96.12
2023-01-10T22:02:04.392Z,95.59
2023-01-10T22:04:30.795Z,95.25
2023-01-10T22:06:57.240Z,94.83
2023-01-10T22:09:25.102Z,94.81
2023-01-10T22:11:51.546Z,94.70
2023-01-10T22:14:17.954Z,95.35
2023-01-10T22:16:44.545Z,95.34
2023-01-10T22:19:11.518Z,94.86
2023-01-10T22:21:37.918Z,95.04
2023-01-10T22:24:04.993Z,94.83
2023-01-10T22:26:31.412Z,94.93
2023-01-10T22:28:57.800Z,95.02
2023-01-10T22:31:24.277Z,94.24
2023-01-10T22:33:50.754Z,94.72
2023-01-10T22:36:18.800Z,93.76
2023-01-10T22:38:46.462Z,93.96
2023-01-10T22:41:21.170Z,93.90
2023-01-10T22:43:47.772Z,93.39
2023-01-10T22:46:15.631Z,93.48
2023-01-10T22:48:42.617Z,93.79
2023-01-10T22:51:09.157Z,93.01
2023-01-10T22:53:35.656Z,93.49
2023-01-10T22:56:03.924Z,93.56
2023-01-10T22:58:30.439Z,93.61
2023-01-10T23:00:56.934Z,92.96
2023-01-10T23:03:24.144Z,92.66
2023-01-10T23:05:56.209Z,92.14
2023-01-10T23:08:22.849Z,92.99
2023-01-10T23:10:49.256Z,93.73
2023-01-10T23:13:16.025Z,92.62
2023-01-10T23:15:42.464Z,92.33
2023-01-10T23:18:08.915Z,92.42
2023-01-10T23:20:35.292Z,92.44
2023-01-10T23:23:01.677Z,91.63
2023-01-10T23:25:28.618Z,91.42
2023-01-10T23:27:55.005Z,91.34
2023-01-10T23:30:22.451Z,92.02
2023-01-10T23:32:51.135Z,92.53
2023-01-10T23:35:17.508Z,91.56
2023-01-10T23:37:43.915Z,91.21
2023-01-10T23:40:10.904Z,91.89
2023-01-10T23:42:37.313Z,91.70
2023-01-10T23:45:04.120Z,91.32
2023-01-10T23:47:30.559Z,91.13
2023-01-10T23:49:56.943Z,91.25
2023-01-10T23:52:23.349Z,91.58
2023-01-10T23:54:49.834Z,91.21
2023-01-10T23:57:16.261Z,90.82
2023-01-10T23:59:42.651Z,91.12
